Princeton's Hourly Summary for Friday, May 11, 2018
Hour Temp
(f)
RH
(%)
Solar Rad.
(MJ/m2)
Rainfall
(in)
Wind
(mph)
5/11/2018 12:00 AM 73 61 0 0 6.25
5/11/2018 1:00 AM 73 61 0 0 7.83
5/11/2018 2:00 AM 72 66 0 0 8.47
5/11/2018 3:00 AM 71 68 0 0 10.2
5/11/2018 4:00 AM 70 71 0 0 9.71
5/11/2018 5:00 AM 69 74 0 0 9.05
5/11/2018 6:00 AM 68 80 0 0 9.71
5/11/2018 7:00 AM 68 82 0.03 0 9.09
5/11/2018 8:00 AM 69 80 0.24 0 9.85
5/11/2018 9:00 AM 70 75 0.64 0 11.12
5/11/2018 10:00 AM 72 67 1.31 0 10.78
5/11/2018 11:00 AM 75 61 1.93 0 10.43
5/11/2018 12:00 PM 78 57 2.51 0 10.58
5/11/2018 1:00 PM 79 53 2.42 0 10.4
5/11/2018 2:00 PM 81 49 2.93 0 10.65
5/11/2018 3:00 PM 82 47 2.72 0 11.83
5/11/2018 4:00 PM 83 45 2.77 0 12.17
5/11/2018 5:00 PM 84 43 2.17 0 12.24
5/11/2018 6:00 PM 84 42 1.76 0 11.69
5/11/2018 7:00 PM 84 44 1.01 0 10.01
5/11/2018 8:00 PM 81 48 0.28 0 8.05
5/11/2018 9:00 PM 79 50 0.01 0 6.26
5/11/2018 10:00 PM 77 56 0 0 5.59
5/11/2018 11:00 PM 75 62 0 0 5.67
Data Summary 75 60 22.73 0.00 9.48